Indianapolis, Indiana
Current Conditions -  °F | °C
As of 2:54 PM on Monday 22 Dec 2014 (Local Time) from KIND Reporting Station
Overcast Overcast  
Wind Chill:   Ceiling: 3400
Heat Index:   Visibility: 10mi
Dew Point:   Wind: 14mph
Humidity: 76%   Direction: 130°SE
Pressure: 29.77"   Gusts: NA
Location:  39.77°N, 86.15°W
Report Text: KIND 221954Z 13012KT 10SM BKN034 BKN100 OVC150 07/03 A2977 RMK AO2 SLP086 T00670028
Loading
Personal Weather Stations






























Interactive Weather Map New forecast layout! Learn more

10-Day Weather Forecast

Advertisements
Track Severe Weather on mobile